Carmel Valley Village, California
Current Conditions -  °F | °C
As of 6:54 PM on Thursday 27 Nov 2014 (Local Time) from KMRY Reporting Station
Clear Clear  
Wind Chill: 51°   Ceiling: Unl
Heat Index: 51°   Visibility: 10mi
Dew Point: 34°   Wind: 3mph
Humidity: 52%   Direction: 90°E
Pressure: 30.07"   Gusts: NA
Location:  36.407°N, 121.657°W
Report Text: KMRY 280254Z 09003KT 10SM CLR 11/01 A3007 RMK AO2 SLP197 T01060011 55001
Loading
Personal Weather Stations






























Interactive Weather Map New forecast layout! Learn more

10-Day Weather Forecast

Advertisements
Track Severe Weather on mobile